Startpagina
METAR-TAF:

METAR-TAF

Vliegvelden :

Seyresse

Dax, Frankrijk

breedte: 43-41N, lengte: 001-04W, hoogte: 32 m

Actueel weer

Dit bericht is 39 minuten geleden gemaakt, om 02:30 UTC
Wind 2 kt uit het oosten
Temperatuur 5°C
Vochtigheid 100%
Druk 1020 hPa
Zicht: 0750 m

METAR: LFBY 240230Z AUTO 09002KT 0750 // ////// 05/05 Q1020

Tijdstip: 04:09 (03:09 UTC)

Verwachting

Dit bericht is 19 uur en het 9 minuten geleden gemaakt, om 08:00 UTC
Verwachting geldig van 23 om 09 UTC tot 23 om 18 UTC
Wind 5 kt uit het oosten
Zicht: 3000 m
Gebroken wolken op 1500 ft
Gebroken wolken op 2500 ft
nevel
Tijdelijke
van 23 om 09 UTC tot 23 om 13 UTC
Zicht: 1000 m
Gebroken wolken op 900 ft
lichte regen
Wijzigt naar
van 23 om 11 UTC tot 23 om 13 UTC
Zicht 10 km of meer
Gebroken wolken op 2500 ft
Verspreide wolken op 4000 ft

TAF: LFBY 230800Z 2309/2318 09005KT 3000 BR BKN015 BKN025 TEMPO 2309/2313 1000 -RA BKN009 BECMG 2311/2313 9999 NSW BKN025 SCT040

Waarnemingen en weersverwachtingen van meer dan 4000 vliegvelden (METAR en TAF).

De beschikbare stations zijn de gele en rode punten op de kaart.

Ga met uw muis naar het station om de naam te zien.

Klik dan om waarnemingen en weersverwachtingen te zien.

kaart wijzigen: klik op de groene knoppen met een zwart kruis om in te zoomen, op de groene knop met een streepje om uit te zoomen of op de groene pijlen voor aangrenzende kaarten.


METAR-TAF: